Time;durP1;ratioP1;P1;durP2;ratioP2;P2;SDS_P1;SDS_P2;PMS_P1;PMS_P2;Temp;Humidity;BMP_temperature;BMP_pressure;BME280_temperature;BME280_humidity;BME280_pressure;Samples;Min_cycle;Max_cycle;Signal;HPM_P1;HPM_P2
2021/09/25 00:01:05;;;;;;;3.67;2.78;;;;;;;-149.78;100.00;50146.81;4829705;29;20049;-60
2021/09/25 00:03:30;;;;;;;5.63;3.95;;;;;;;-149.78;100.00;50150.72;4826778;29;20038;-60
2021/09/25 00:05:56;;;;;;;5.10;3.50;;;;;;;-149.78;100.00;50172.22;4831831;29;20038;-61
2021/09/25 00:08:22;;;;;;;5.82;4.28;;;;;;;-149.78;100.00;50123.34;4826415;29;20099;-61
2021/09/25 00:10:48;;;;;;;6.90;4.40;;;;;;;-149.78;100.00;50178.09;4814255;29;20394;-60
2021/09/25 00:13:13;;;;;;;5.60;4.30;;;;;;;-149.78;100.00;50168.31;4824543;29;20133;-60
2021/09/25 00:15:39;;;;;;;6.28;4.30;;;;;;;-149.78;100.00;50166.34;4823854;29;20046;-61
2021/09/25 00:18:05;;;;;;;6.18;4.90;;;;;;;-149.78;100.00;50162.44;4830518;29;20087;-60
2021/09/25 00:20:32;;;;;;;9.57;5.78;;;;;;;-149.78;100.00;50176.13;4824128;29;20122;-60
2021/09/25 00:22:59;;;;;;;9.65;5.13;;;;;;;-149.78;100.00;50152.66;4815978;29;20112;-60
2021/09/25 00:25:24;;;;;;;10.68;5.85;;;;;;;-149.78;100.00;50158.53;4831322;29;20117;-61
2021/09/25 00:27:50;;;;;;;8.35;5.72;;;;;;;-149.78;100.00;50174.19;4832145;29;20049;-60
2021/09/25 00:30:16;;;;;;;10.98;5.95;;;;;;;-149.78;100.00;50162.44;4825670;29;20046;-60
2021/09/25 00:32:42;;;;;;;8.32;5.00;;;;;;;-149.78;100.00;50158.53;4837406;29;20140;-61
2021/09/25 00:35:10;;;;;;;7.57;4.57;;;;;;;-149.78;100.00;50150.72;4831866;29;20046;-61
2021/09/25 00:37:37;;;;;;;5.88;4.32;;;;;;;-149.78;100.00;50166.34;4827582;29;20050;-60
2021/09/25 00:40:04;;;;;;;6.40;4.40;;;;;;;-149.78;100.00;50150.72;4824325;29;20039;-61
2021/09/25 00:42:29;;;;;;;6.35;4.38;;;;;;;-149.78;100.00;50176.13;4823276;29;20574;-61
2021/09/25 00:44:55;;;;;;;5.80;4.05;;;;;;;-149.78;100.00;50178.09;4826944;29;20125;-61
2021/09/25 00:47:20;;;;;;;4.75;3.42;;;;;;;-149.78;100.00;50150.72;4826599;29;20133;-60
2021/09/25 00:49:46;;;;;;;5.03;3.70;;;;;;;-149.78;100.00;50160.50;4823972;29;20035;-61
2021/09/25 00:52:12;;;;;;;5.38;3.95;;;;;;;-149.78;100.00;50160.50;4823963;29;20035;-60
2021/09/25 00:54:38;;;;;;;5.13;3.58;;;;;;;-149.78;100.00;50182.00;4823394;29;20435;-61
2021/09/25 00:57:04;;;;;;;5.47;4.15;;;;;;;-149.78;100.00;50150.72;4823687;29;20038;-61
2021/09/25 00:59:30;;;;;;;5.95;4.47;;;;;;;-149.78;100.00;50150.72;4824250;29;20193;-60
2021/09/25 01:01:57;;;;;;;6.20;4.38;;;;;;;-149.78;100.00;50158.53;4820565;29;20042;-60
2021/09/25 01:04:23;;;;;;;8.10;4.63;;;;;;;-149.78;100.00;50172.22;4823457;29;20087;-60
2021/09/25 01:06:48;;;;;;;7.13;4.45;;;;;;;-149.78;100.00;50154.63;4824981;29;20383;-60
2021/09/25 01:09:14;;;;;;;6.80;4.72;;;;;;;-149.78;100.00;50183.97;4823041;29;20072;-60
2021/09/25 01:11:40;;;;;;;6.68;4.53;;;;;;;-149.78;100.00;50127.25;4824379;29;20137;-61
2021/09/25 01:14:06;;;;;;;6.82;4.82;;;;;;;-149.78;100.00;50148.75;4828243;29;20038;-60
2021/09/25 01:16:32;;;;;;;7.72;5.50;;;;;;;-149.78;100.00;50148.75;4823764;29;20476;-60
2021/09/25 01:18:58;;;;;;;6.95;5.18;;;;;;;-149.78;100.00;50174.19;4823725;29;20069;-60
2021/09/25 01:21:24;;;;;;;8.07;4.75;;;;;;;-149.78;100.00;50162.44;4823522;29;20046;-60
2021/09/25 01:23:50;;;;;;;8.18;5.50;;;;;;;-149.78;100.00;50195.69;4824179;29;20065;-61
2021/09/25 01:26:16;;;;;;;7.85;5.30;;;;;;;-149.78;100.00;50174.19;4822321;29;20034;-60
2021/09/25 01:28:43;;;;;;;6.63;4.78;;;;;;;-149.78;100.00;50140.94;4825489;29;20117;-60
2021/09/25 01:31:11;;;;;;;7.93;5.15;;;;;;;-149.78;100.00;50182.00;4824414;29;20038;-61
2021/09/25 01:33:42;;;;;;;8.75;5.40;;;;;;;-149.78;100.00;50197.66;4835727;29;20124;-60
2021/09/25 01:36:10;;;;;;;7.50;5.10;;;;;;;-149.78;100.00;50150.72;4821358;29;20053;-61
2021/09/25 01:38:36;;;;;;;7.05;5.10;;;;;;;-149.78;100.00;50189.81;4820209;29;20126;-61
2021/09/25 01:41:02;;;;;;;6.82;4.63;;;;;;;-149.78;100.00;50158.53;4823281;29;20039;-60
2021/09/25 01:43:30;;;;;;;10.50;6.07;;;;;;;-149.78;100.00;50174.19;4828383;29;20042;-60
2021/09/25 01:45:57;;;;;;;7.82;4.90;;;;;;;-149.78;100.00;50162.44;4823215;29;20435;-61
2021/09/25 01:48:23;;;;;;;9.18;5.90;;;;;;;-149.78;100.00;50174.19;4823975;29;20062;-61
2021/09/25 01:50:50;;;;;;;11.23;6.05;;;;;;;-149.78;100.00;50170.25;4823553;29;20049;-60
2021/09/25 01:53:17;;;;;;;6.43;5.03;;;;;;;-149.78;100.00;50158.53;4821845;29;20125;-60
2021/09/25 01:55:43;;;;;;;6.30;4.70;;;;;;;-149.78;100.00;50189.81;4822910;29;20352;-61
2021/09/25 01:58:09;;;;;;;10.25;5.28;;;;;;;-149.78;100.00;50178.09;4822039;29;20094;-60
2021/09/25 02:00:35;;;;;;;6.53;4.70;;;;;;;-149.78;100.00;50178.09;4824550;29;20509;-60
2021/09/25 02:03:02;;;;;;;6.05;4.68;;;;;;;-149.78;100.00;50183.97;4825981;29;20053;-61
2021/09/25 02:05:28;;;;;;;5.93;4.38;;;;;;;-149.78;100.00;50168.31;4827145;29;20123;-61
2021/09/25 02:07:53;;;;;;;7.97;4.75;;;;;;;-149.78;100.00;50189.81;4826055;29;20079;-60
2021/09/25 02:10:19;;;;;;;5.72;4.00;;;;;;;-149.78;100.00;50174.19;4826361;29;20115;-60
2021/09/25 02:12:45;;;;;;;5.30;3.88;;;;;;;-149.78;100.00;50152.66;4826700;29;20034;-61
2021/09/25 02:15:12;;;;;;;7.47;4.50;;;;;;;-149.78;100.00;50185.91;4828740;29;20129;-60
2021/09/25 02:17:39;;;;;;;9.45;4.90;;;;;;;-149.78;100.00;50189.81;4817703;29;20109;-60
2021/09/25 02:20:06;;;;;;;5.85;4.28;;;;;;;-149.78;100.00;50182.00;4819761;29;20038;-61
2021/09/25 02:22:32;;;;;;;6.05;4.00;;;;;;;-149.78;100.00;50174.19;4810425;29;20042;-60
2021/09/25 02:24:59;;;;;;;5.22;3.80;;;;;;;-149.78;100.00;50162.44;4820154;29;20046;-61
2021/09/25 02:27:24;;;;;;;7.65;4.18;;;;;;;-149.78;100.00;50201.56;4830539;29;20037;-60
2021/09/25 02:29:50;;;;;;;5.70;4.28;;;;;;;-149.78;100.00;50185.91;4831597;29;20094;-61
2021/09/25 02:32:15;;;;;;;5.93;3.75;;;;;;;-149.78;100.00;50154.63;4827527;29;20132;-61
2021/09/25 02:34:41;;;;;;;9.25;4.60;;;;;;;-149.78;100.00;50203.50;4830619;29;20049;-60
2021/09/25 02:37:07;;;;;;;6.40;4.25;;;;;;;-149.78;100.00;50174.19;4827920;29;20038;-60
2021/09/25 02:39:34;;;;;;;7.13;3.85;;;;;;;-149.78;100.00;50178.09;4825329;29;20038;-60
2021/09/25 02:42:00;;;;;;;5.93;3.88;;;;;;;-149.78;100.00;50174.19;4825865;29;20046;-61
2021/09/25 02:44:27;;;;;;;4.40;3.78;;;;;;;-149.78;100.00;50174.19;4825224;29;20046;-60
2021/09/25 02:46:53;;;;;;;6.05;4.00;;;;;;;-149.78;100.00;50182.00;4825816;29;20487;-61
2021/09/25 02:49:21;;;;;;;4.72;3.50;;;;;;;-149.78;100.00;50180.03;4809813;29;20151;-61
2021/09/25 02:51:47;;;;;;;5.80;4.03;;;;;;;-149.78;100.00;50213.28;4823288;29;20440;-60
2021/09/25 02:54:13;;;;;;;6.10;4.22;;;;;;;-149.78;100.00;50183.97;4809901;29;20079;-61
2021/09/25 02:56:39;;;;;;;6.75;3.80;;;;;;;-149.78;100.00;50168.31;4830345;29;20033;-61
2021/09/25 02:59:05;;;;;;;4.38;3.90;;;;;;;-149.78;100.00;50230.88;4830690;29;20038;-61
2021/09/25 03:01:31;;;;;;;6.45;4.38;;;;;;;-149.78;100.00;50185.91;4825527;29;20034;-61
2021/09/25 03:03:57;;;;;;;4.88;4.00;;;;;;;-149.78;100.00;50178.09;4809032;29;20102;-60
2021/09/25 03:06:24;;;;;;;7.85;4.63;;;;;;;-149.78;100.00;50185.91;4825493;29;20039;-60
2021/09/25 03:08:50;;;;;;;9.05;4.40;;;;;;;-149.78;100.00;50197.66;4825205;29;20034;-61
2021/09/25 03:11:16;;;;;;;10.50;4.80;;;;;;;-149.78;100.00;50197.66;4824438;29;20049;-61
2021/09/25 03:13:43;;;;;;;6.65;4.45;;;;;;;-149.78;100.00;50205.47;4826396;29;20042;-61
2021/09/25 03:16:08;;;;;;;6.85;4.72;;;;;;;-149.78;100.00;50189.81;4815456;29;20053;-61
2021/09/25 03:18:34;;;;;;;7.25;4.80;;;;;;;-149.78;100.00;50180.03;4808424;29;20042;-61
2021/09/25 03:21:00;;;;;;;7.32;4.70;;;;;;;-149.78;100.00;50170.25;4827567;29;20102;-61
2021/09/25 03:23:25;;;;;;;9.88;4.53;;;;;;;-149.78;100.00;50185.91;4817718;29;20042;-61
2021/09/25 03:25:51;;;;;;;5.10;4.20;;;;;;;-149.78;100.00;50189.81;4808226;29;20072;-61
2021/09/25 03:28:17;;;;;;;7.97;4.90;;;;;;;-149.78;100.00;50211.34;4825143;29;20042;-60
2021/09/25 03:30:43;;;;;;;9.25;5.32;;;;;;;-149.78;100.00;50221.13;4822442;29;20065;-61
2021/09/25 03:33:08;;;;;;;6.78;3.72;;;;;;;-149.78;100.00;50178.09;4833294;29;20387;-61
2021/09/25 03:35:35;;;;;;;7.68;4.10;;;;;;;-149.78;100.00;50217.19;4825793;29;20038;-61
2021/09/25 03:38:00;;;;;;;7.97;4.68;;;;;;;-149.78;100.00;50154.63;4826572;29;20040;-61
2021/09/25 03:40:27;;;;;;;4.05;3.10;;;;;;;-149.78;100.00;50217.19;4826075;29;20030;-61
2021/09/25 03:42:56;;;;;;;4.10;3.42;;;;;;;-149.78;100.00;50185.91;4825771;29;20035;-61
2021/09/25 03:45:21;;;;;;;5.07;3.30;;;;;;;-149.78;100.00;50211.34;4823937;29;20041;-61
2021/09/25 03:47:47;;;;;;;4.05;3.40;;;;;;;-149.78;100.00;50205.47;4807869;29;20054;-61
2021/09/25 03:50:13;;;;;;;5.45;3.97;;;;;;;-149.78;100.00;50178.09;4824286;29;20039;-61
2021/09/25 03:52:39;;;;;;;5.65;3.92;;;;;;;-149.78;100.00;50221.13;4824131;29;20066;-60
2021/09/25 03:55:07;;;;;;;4.80;3.60;;;;;;;-149.78;100.00;50189.81;4819566;29;20077;-61
2021/09/25 03:57:33;;;;;;;5.45;3.30;;;;;;;-149.78;100.00;50234.81;4819623;29;20038;-61
2021/09/25 03:59:59;;;;;;;4.38;3.33;;;;;;;-149.78;100.00;50197.66;4824050;29;20119;-60
2021/09/25 04:02:25;;;;;;;3.83;3.38;;;;;;;-149.78;100.00;50189.81;4822856;29;20034;-61
2021/09/25 04:04:51;;;;;;;4.82;3.40;;;;;;;-149.78;100.00;50182.00;4824407;29;20049;-60
2021/09/25 04:07:18;;;;;;;4.63;3.17;;;;;;;-149.78;100.00;50225.03;4823552;29;20417;-61
2021/09/25 04:09:44;;;;;;;5.38;3.42;;;;;;;-149.78;100.00;50170.25;4824702;29;20403;-61
2021/09/25 04:12:10;;;;;;;5.80;3.65;;;;;;;-149.78;100.00;50209.38;4824175;29;20045;-61
2021/09/25 04:14:35;;;;;;;6.15;3.97;;;;;;;-149.78;100.00;50182.00;4824796;29;20038;-60
2021/09/25 04:17:01;;;;;;;5.90;3.42;;;;;;;-149.78;100.00;50174.19;4823555;29;20045;-61
2021/09/25 04:19:28;;;;;;;3.90;2.97;;;;;;;-149.78;100.00;50148.75;4798440;29;20117;-61
2021/09/25 04:21:55;;;;;;;5.60;3.38;;;;;;;-149.78;100.00;50201.56;4828228;29;20092;-61
2021/09/25 04:24:21;;;;;;;5.28;3.20;;;;;;;-149.78;100.00;50221.13;4824365;29;20030;-61
2021/09/25 04:26:46;;;;;;;7.95;3.40;;;;;;;-149.78;100.00;50189.81;4825327;29;20038;-60
2021/09/25 04:29:12;;;;;;;4.65;3.25;;;;;;;-149.78;100.00;50201.56;4807025;29;20039;-61
2021/09/25 04:31:39;;;;;;;6.35;3.65;;;;;;;-149.78;100.00;50187.88;4823969;29;20407;-60
2021/09/25 04:34:06;;;;;;;6.43;4.05;;;;;;;-149.78;100.00;50209.38;4822541;29;20039;-60
2021/09/25 04:36:32;;;;;;;5.32;4.47;;;;;;;-149.78;100.00;50182.00;4827066;29;20502;-60
2021/09/25 04:38:59;;;;;;;5.45;3.95;;;;;;;-149.78;100.00;50185.91;4824163;29;20083;-61
2021/09/25 04:41:25;;;;;;;9.18;4.28;;;;;;;-149.78;100.00;50213.28;4824069;29;20036;-60
2021/09/25 04:43:51;;;;;;;8.45;4.78;;;;;;;-149.78;100.00;50185.91;4823343;29;20123;-61
2021/09/25 04:46:17;;;;;;;6.53;4.63;;;;;;;-149.78;100.00;50183.97;4816452;29;20045;-61
2021/09/25 04:48:42;;;;;;;6.82;5.00;;;;;;;-149.78;100.00;50215.25;4831234;29;20054;-61
2021/09/25 04:51:08;;;;;;;9.63;5.80;;;;;;;-149.78;100.00;50209.38;4831645;29;20044;-61
2021/09/25 04:53:33;;;;;;;9.80;5.35;;;;;;;-149.78;100.00;50185.91;4824310;29;20557;-61
2021/09/25 04:56:00;;;;;;;10.32;5.25;;;;;;;-149.78;100.00;50178.09;4823065;29;20042;-61
2021/09/25 04:58:29;;;;;;;8.88;4.90;;;;;;;-149.78;100.00;50189.81;4823419;29;20034;-61
2021/09/25 05:00:56;;;;;;;7.60;4.80;;;;;;;-149.78;100.00;50221.13;4826593;29;20042;-60
2021/09/25 05:03:22;;;;;;;8.43;5.40;;;;;;;-149.78;100.00;50174.19;4826744;29;20037;-60
2021/09/25 05:05:48;;;;;;;7.68;5.45;;;;;;;-149.78;100.00;50182.00;4825841;29;20087;-61
2021/09/25 05:08:13;;;;;;;8.93;5.60;;;;;;;-149.78;100.00;50195.69;4827549;29;20031;-60
2021/09/25 05:10:39;;;;;;;7.07;4.95;;;;;;;-149.78;100.00;50197.66;4823853;29;20043;-61
2021/09/25 05:13:06;;;;;;;8.35;5.30;;;;;;;-149.78;100.00;50232.84;4822059;29;20095;-61
2021/09/25 05:15:32;;;;;;;10.05;6.18;;;;;;;-149.78;100.00;50213.28;4826392;29;20054;-61
2021/09/25 05:17:58;;;;;;;12.43;6.93;;;;;;;-149.78;100.00;50225.03;4806585;29;20044;-60
2021/09/25 05:20:23;;;;;;;10.02;6.13;;;;;;;-149.78;100.00;50189.81;4830784;29;20474;-60
2021/09/25 05:22:49;;;;;;;10.25;5.68;;;;;;;-149.78;100.00;50201.56;4823191;29;20042;-60
2021/09/25 05:25:15;;;;;;;8.95;5.90;;;;;;;-149.78;100.00;50236.75;4823190;29;20046;-61
2021/09/25 05:27:42;;;;;;;9.85;5.68;;;;;;;-149.78;100.00;50209.38;4830254;29;20042;-61
2021/09/25 05:30:09;;;;;;;11.23;6.45;;;;;;;-149.78;100.00;50228.94;4800850;29;20039;-60
2021/09/25 05:32:35;;;;;;;12.30;6.97;;;;;;;-149.78;100.00;50207.44;4829116;29;20051;-60
2021/09/25 05:35:01;;;;;;;10.43;5.80;;;;;;;-149.78;100.00;50197.66;4820702;29;20098;-61
2021/09/25 05:37:26;;;;;;;10.88;6.53;;;;;;;-149.78;100.00;50228.94;4825886;29;20066;-60
2021/09/25 05:39:55;;;;;;;10.52;5.93;;;;;;;-149.78;100.00;50209.38;4800254;29;20023;-61
2021/09/25 05:42:22;;;;;;;11.88;6.05;;;;;;;-149.78;100.00;50197.66;4826162;29;20095;-60
2021/09/25 05:44:49;;;;;;;10.57;6.25;;;;;;;-149.78;100.00;50205.47;4823483;29;20045;-61
2021/09/25 05:47:15;;;;;;;12.05;6.57;;;;;;;-149.78;100.00;50185.91;4823220;29;20126;-61
2021/09/25 05:49:40;;;;;;;13.98;6.75;;;;;;;-149.78;100.00;50205.47;4806545;29;20125;-62
2021/09/25 05:52:08;;;;;;;11.15;6.30;;;;;;;-149.78;100.00;50213.28;4824060;29;20046;-61
2021/09/25 05:54:35;;;;;;;10.23;5.97;;;;;;;-149.78;100.00;50232.84;4827958;29;20394;-60
2021/09/25 05:57:01;;;;;;;14.30;6.30;;;;;;;-149.78;100.00;50260.22;4822910;29;20045;-61
2021/09/25 05:59:27;;;;;;;15.10;6.90;;;;;;;-149.78;100.00;50230.88;4806117;29;20038;-61
2021/09/25 06:01:53;;;;;;;9.55;5.85;;;;;;;-149.78;100.00;50185.91;4822006;29;20506;-61
2021/09/25 06:04:18;;;;;;;9.95;5.63;;;;;;;-149.78;100.00;50217.19;4806670;29;20181;-61
2021/09/25 06:06:44;;;;;;;10.23;5.72;;;;;;;-149.78;100.00;50232.84;4825875;29;20124;-60
2021/09/25 06:09:09;;;;;;;10.18;5.55;;;;;;;-149.78;100.00;50185.91;4805681;29;20125;-60
2021/09/25 06:11:35;;;;;;;10.43;5.60;;;;;;;-149.78;100.00;50213.28;4821420;29;20050;-60
2021/09/25 06:14:01;;;;;;;10.23;5.68;;;;;;;-149.78;100.00;50211.34;4820999;29;20050;-60
2021/09/25 06:16:27;;;;;;;9.20;5.78;;;;;;;-149.78;100.00;50219.16;4821757;29;20042;-60
2021/09/25 06:18:53;;;;;;;10.88;5.70;;;;;;;-149.78;100.00;50201.56;4823744;29;20544;-61
2021/09/25 06:21:19;;;;;;;9.45;5.78;;;;;;;-149.78;100.00;50219.16;4821521;29;20038;-61
2021/09/25 06:23:46;;;;;;;11.65;5.70;;;;;;;-149.78;100.00;50221.13;4821488;29;20398;-61
2021/09/25 06:26:13;;;;;;;9.77;5.30;;;;;;;-149.78;100.00;50221.13;4822771;29;20098;-60
2021/09/25 06:28:38;;;;;;;9.35;5.63;;;;;;;-149.78;100.00;50207.44;4826219;29;20038;-61
2021/09/25 06:31:05;;;;;;;10.68;5.72;;;;;;;-149.78;100.00;50213.28;4822339;29;20112;-60
2021/09/25 06:33:31;;;;;;;10.90;6.05;;;;;;;-149.78;100.00;50213.28;4823520;29;20042;-61
2021/09/25 06:35:56;;;;;;;12.60;5.75;;;;;;;-149.78;100.00;50213.28;4825095;29;20037;-61
2021/09/25 06:38:22;;;;;;;12.30;5.97;;;;;;;-149.78;100.00;50183.97;4821342;29;20484;-62
2021/09/25 06:40:48;;;;;;;9.88;5.82;;;;;;;-149.78;100.00;50185.91;4824497;29;20042;-62
2021/09/25 06:43:14;;;;;;;10.38;5.55;;;;;;;-149.78;100.00;50189.81;4823213;29;20035;-61
2021/09/25 06:45:40;;;;;;;12.75;5.90;;;;;;;-149.78;100.00;50178.09;4823493;29;20034;-62
2021/09/25 06:48:06;;;;;;;12.00;6.25;;;;;;;-149.78;100.00;50185.91;4825440;29;20412;-61
2021/09/25 06:50:32;;;;;;;10.45;5.30;;;;;;;-149.78;100.00;50201.56;4837458;29;20099;-62
2021/09/25 06:52:58;;;;;;;12.13;5.65;;;;;;;-149.78;100.00;50182.00;4827013;29;20605;-62
2021/09/25 06:55:24;;;;;;;10.25;5.97;;;;;;;-149.78;100.00;50213.28;4829332;29;20042;-62
2021/09/25 06:57:50;;;;;;;9.90;5.65;;;;;;;-149.78;100.00;50178.09;4826254;29;20050;-61
2021/09/25 07:00:16;;;;;;;9.13;5.47;;;;;;;-149.78;100.00;50205.47;4823942;29;20479;-61
2021/09/25 07:02:42;;;;;;;12.00;5.72;;;;;;;-149.78;100.00;50197.66;4831211;29;20042;-61
2021/09/25 07:05:08;;;;;;;13.45;5.95;;;;;;;-149.78;100.00;50170.25;4810576;29;20034;-62
2021/09/25 07:07:34;;;;;;;9.20;5.35;;;;;;;-149.78;100.00;50182.00;4826988;29;20090;-62
2021/09/25 07:10:02;;;;;;;11.05;5.97;;;;;;;-149.78;100.00;50199.59;4823685;29;20172;-62
2021/09/25 07:12:28;;;;;;;9.77;5.63;;;;;;;-149.78;100.00;50213.28;4825174;29;20046;-60
2021/09/25 07:14:56;;;;;;;10.15;5.50;;;;;;;-149.78;100.00;50201.56;4826726;29;20159;-60
2021/09/25 07:17:26;;;;;;;11.25;5.65;;;;;;;-149.78;100.00;50209.38;4826654;29;20098;-59
2021/09/25 07:19:52;;;;;;;9.77;5.22;;;;;;;-149.78;100.00;50221.13;4793762;29;20172;-60
2021/09/25 07:22:18;;;;;;;8.48;5.38;;;;;;;-149.78;100.00;50197.66;4795811;29;20043;-61
2021/09/25 07:24:44;;;;;;;9.20;4.97;;;;;;;-149.78;100.00;50178.09;4825131;29;20049;-60
2021/09/25 07:27:09;;;;;;;9.27;5.43;;;;;;;-149.78;100.00;50180.03;4832663;29;20049;-60
2021/09/25 07:29:35;;;;;;;10.77;5.95;;;;;;;-149.78;100.00;50201.56;4825101;29;20149;-61
2021/09/25 07:32:01;;;;;;;10.18;5.85;;;;;;;-149.78;100.00;50209.38;4830954;29;20509;-60
2021/09/25 07:34:27;;;;;;;12.35;5.72;;;;;;;-149.78;100.00;50185.91;4824974;29;20042;-61
2021/09/25 07:36:54;;;;;;;12.35;5.78;;;;;;;-149.78;100.00;50197.66;4831204;29;20368;-63
2021/09/25 07:39:20;;;;;;;8.52;5.30;;;;;;;-149.78;100.00;50174.19;4824196;29;20034;-62
2021/09/25 07:41:45;;;;;;;10.05;5.38;;;;;;;-149.78;100.00;50189.81;4827718;29;20046;-59
2021/09/25 07:44:11;;;;;;;11.00;6.03;;;;;;;-149.78;100.00;50197.66;4824184;29;20090;-60
2021/09/25 07:46:40;;;;;;;8.32;5.00;;;;;;;-149.78;100.00;50185.91;4824042;29;20053;-60
2021/09/25 07:49:06;;;;;;;7.35;4.88;;;;;;;-149.78;100.00;50232.84;4821461;29;20100;-60
2021/09/25 07:51:32;;;;;;;8.45;5.43;;;;;;;-149.78;100.00;50189.81;4827768;29;20459;-60
2021/09/25 07:53:58;;;;;;;7.97;5.28;;;;;;;-149.78;100.00;50217.19;4826809;29;20125;-61
2021/09/25 07:56:24;;;;;;;9.88;5.95;;;;;;;-149.78;100.00;50203.50;4824259;29;20034;-60
2021/09/25 07:58:50;;;;;;;8.73;5.07;;;;;;;-149.78;100.00;50201.56;4823450;29;20054;-60
2021/09/25 08:01:16;;;;;;;8.35;5.20;;;;;;;-149.78;100.00;50199.59;4823798;29;20061;-61
2021/09/25 08:03:43;;;;;;;11.30;6.10;;;;;;;-149.78;100.00;50201.56;4828578;29;20070;-61
2021/09/25 08:06:10;;;;;;;9.30;5.40;;;;;;;-149.78;100.00;50207.44;4822534;29;20046;-60
2021/09/25 08:08:36;;;;;;;8.20;4.95;;;;;;;-149.78;100.00;50189.81;4822673;29;20047;-60
2021/09/25 08:11:02;;;;;;;9.57;5.25;;;;;;;-149.78;100.00;50164.41;4824779;29;20034;-61
2021/09/25 08:13:28;;;;;;;8.60;4.95;;;;;;;-149.78;100.00;50209.38;4825119;29;20046;-60
2021/09/25 08:15:54;;;;;;;7.93;4.93;;;;;;;-149.78;100.00;50182.00;4828175;29;20063;-60
2021/09/25 08:18:19;;;;;;;7.78;4.65;;;;;;;-149.78;100.00;50213.28;4828171;29;20554;-61
2021/09/25 08:20:45;;;;;;;8.43;4.10;;;;;;;-149.78;100.00;50176.13;4831489;29;20034;-60
2021/09/25 08:23:11;;;;;;;8.43;4.60;;;;;;;-149.78;100.00;50199.59;4824723;29;20049;-60
2021/09/25 08:25:37;;;;;;;6.20;3.88;;;;;;;-149.78;100.00;50168.31;4823411;29;20121;-60
2021/09/25 08:28:03;;;;;;;5.82;3.97;;;;;;;-149.78;100.00;50146.81;4827052;29;20038;-60
2021/09/25 08:30:30;;;;;;;9.60;4.20;;;;;;;-149.78;100.00;50166.34;4822534;29;20134;-60
2021/09/25 08:32:57;;;;;;;7.57;3.88;;;;;;;-149.78;100.00;50182.00;4827103;29;20116;-61
2021/09/25 08:35:23;;;;;;;7.43;3.90;;;;;;;-149.78;100.00;50154.63;4827707;29;20030;-61
2021/09/25 08:37:49;;;;;;;6.55;3.30;;;;;;;-149.78;100.00;50150.72;4823480;29;20050;-61
2021/09/25 08:40:19;;;;;;;4.53;2.85;;;;;;;-149.78;100.00;50158.53;4830094;29;20049;-60
2021/09/25 08:42:46;;;;;;;4.25;2.80;;;;;;;-149.78;100.00;50174.19;4825835;29;20467;-60
2021/09/25 08:45:11;;;;;;;5.95;3.22;;;;;;;-149.78;100.00;50183.97;4829640;29;20044;-60
2021/09/25 08:47:38;;;;;;;5.57;3.33;;;;;;;-149.78;100.00;50144.84;4824728;29;20055;-60
2021/09/25 08:50:06;;;;;;;7.00;3.50;;;;;;;-149.78;100.00;50158.53;4829073;29;20565;-61
2021/09/25 08:52:32;;;;;;;6.28;3.63;;;;;;;-149.78;100.00;50158.53;4823856;29;20118;-61
2021/09/25 08:54:58;;;;;;;5.50;3.30;;;;;;;-149.78;100.00;50150.72;4825998;29;20038;-61
2021/09/25 08:57:24;;;;;;;8.85;4.57;;;;;;;-149.78;100.00;50183.97;4826539;29;20121;-61
2021/09/25 08:59:50;;;;;;;6.68;3.75;;;;;;;-149.78;100.00;50103.78;4822038;29;20077;-61
2021/09/25 09:02:18;;;;;;;8.18;4.30;;;;;;;-149.78;100.00;50090.09;4824853;29;20034;-61
2021/09/25 09:04:52;;;;;;;7.75;4.13;;;;;;;-149.78;100.00;50099.88;4820590;29;20038;-62
2021/09/25 09:07:25;;;;;;;6.10;4.00;;;;;;;-149.78;100.00;50058.78;4828539;29;20078;-61
2021/09/25 09:09:52;;;;;;;6.47;4.15;;;;;;;-149.78;100.00;50072.50;4829891;29;20026;-61
2021/09/25 09:12:24;;;;;;;5.85;3.63;;;;;;;-149.78;100.00;50111.59;4823254;29;20087;-61
2021/09/25 09:14:51;;;;;;;5.07;3.13;;;;;;;-149.78;100.00;50056.84;4820981;29;20022;-61
2021/09/25 09:17:24;;;;;;;4.80;2.97;;;;;;;-149.78;100.00;50131.16;4808467;29;20177;-61
2021/09/25 09:19:51;;;;;;;4.88;3.10;;;;;;;-149.78;100.00;50103.78;4825682;29;20038;-61
2021/09/25 09:22:35;;;;;;;4.78;2.97;;;;;;;-149.78;100.00;50123.34;4823191;29;20065;-61
2021/09/25 09:25:19;;;;;;;5.63;3.67;;;;;;;-149.78;100.00;50142.88;4823332;29;20463;-61
2021/09/25 09:28:03;;;;;;;10.38;5.15;;;;;;;-149.78;100.00;50135.06;4821399;29;20053;-61
2021/09/25 09:30:50;;;;;;;10.02;5.50;;;;;;;-149.78;100.00;50152.66;4822950;29;20057;-61
2021/09/25 09:33:51;;;;;;;11.57;5.88;;;;;;;-149.78;100.00;50146.81;4822199;29;20118;-61
2021/09/25 09:36:35;;;;;;;8.80;5.63;;;;;;;-149.78;100.00;50123.34;4822469;29;20414;-61
2021/09/25 09:39:21;;;;;;;10.30;6.18;;;;;;;-149.78;100.00;50150.72;4825788;29;20045;-61
2021/09/25 09:42:05;;;;;;;10.80;6.65;;;;;;;-149.78;100.00;50111.59;4821607;29;20061;-61
2021/09/25 09:44:52;;;;;;;10.90;6.47;;;;;;;-149.78;100.00;50119.41;4826071;29;20052;-65
2021/09/25 09:47:44;;;;;;;10.00;5.90;;;;;;;-149.78;100.00;50103.78;4823191;29;20153;-65
2021/09/25 09:50:29;;;;;;;11.43;6.53;;;;;;;-149.78;100.00;50146.81;4819150;29;20057;-65
2021/09/25 09:52:55;;;;;;;12.82;7.80;;;;;;;-149.78;100.00;50170.25;4825264;29;20044;-65
2021/09/25 09:55:22;;;;;;;13.30;7.75;;;;;;;-149.78;100.00;50201.56;4823118;29;20045;-65
2021/09/25 09:58:05;;;;;;;12.82;7.45;;;;;;;-149.78;100.00;50148.75;4806245;29;20042;-65
2021/09/25 10:00:32;;;;;;;13.20;8.05;;;;;;;-149.78;100.00;50146.81;4807517;29;20035;-65
2021/09/25 10:02:59;;;;;;;11.20;6.97;;;;;;;-149.78;100.00;50154.63;4821512;29;20038;-65
2021/09/25 10:05:25;;;;;;;13.48;8.05;;;;;;;-149.78;100.00;50137.03;4827250;29;20054;-65
2021/09/25 10:07:51;;;;;;;14.70;8.57;;;;;;;-149.78;100.00;50174.19;4825544;29;20030;-64
2021/09/25 10:10:16;;;;;;;15.85;8.32;;;;;;;-149.78;100.00;50123.34;4822328;29;20076;-65
2021/09/25 10:12:44;;;;;;;14.13;8.13;;;;;;;-149.78;100.00;50166.34;4825774;29;20483;-65
2021/09/25 10:15:11;;;;;;;13.27;7.78;;;;;;;-149.78;100.00;50168.31;4820999;29;20098;-65
2021/09/25 10:17:41;;;;;;;12.90;7.90;;;;;;;-149.78;100.00;50156.56;4822316;29;20121;-65
2021/09/25 10:20:09;;;;;;;10.48;6.22;;;;;;;-149.78;100.00;50142.88;4822639;29;20026;-64
2021/09/25 10:22:36;;;;;;;9.40;5.32;;;;;;;-149.78;100.00;50166.34;4820048;29;20038;-65
2021/09/25 10:25:10;;;;;;;8.43;5.00;;;;;;;-149.78;100.00;50150.72;4833753;29;20491;-65
2021/09/25 10:27:41;;;;;;;7.68;4.53;;;;;;;-149.78;100.00;50178.09;4826681;29;20038;-65
2021/09/25 10:30:10;;;;;;;7.47;4.00;;;;;;;-149.78;100.00;50197.66;4831612;29;20034;-65
2021/09/25 10:32:50;;;;;;;5.28;3.20;;;;;;;-149.78;100.00;50138.97;4826750;29;20034;-65
2021/09/25 10:35:26;;;;;;;6.32;3.80;;;;;;;-149.78;100.00;50135.06;4827808;29;20065;-65
2021/09/25 10:37:55;;;;;;;6.03;3.55;;;;;;;-149.78;100.00;50146.81;4827572;29;20041;-65
2021/09/25 10:40:23;;;;;;;5.95;3.40;;;;;;;-149.78;100.00;50135.06;4824068;29;20081;-65
2021/09/25 10:42:55;;;;;;;4.53;3.35;;;;;;;-149.78;100.00;50166.34;4829074;29;20493;-65
2021/09/25 10:45:27;;;;;;;5.55;3.40;;;;;;;-149.78;100.00;50162.44;4826763;29;20376;-65
2021/09/25 10:48:11;;;;;;;4.10;3.00;;;;;;;-149.78;100.00;50158.53;4824490;29;20539;-64
2021/09/25 10:50:45;;;;;;;4.38;2.83;;;;;;;-149.78;100.00;50152.66;4829975;29;20038;-65
2021/09/25 10:53:14;;;;;;;3.53;2.38;;;;;;;-149.78;100.00;50170.25;4823471;29;20463;-65
2021/09/25 10:55:41;;;;;;;2.78;2.13;;;;;;;-149.78;100.00;50170.25;4824127;29;20042;-64
2021/09/25 10:58:25;;;;;;;2.38;1.77;;;;;;;-149.78;100.00;50195.69;4829558;29;20129;-64
2021/09/25 11:01:13;;;;;;;2.50;1.60;;;;;;;-149.78;100.00;50154.63;4824825;29;20084;-64
2021/09/25 11:06:14;;;;;;;2.00;1.80;;;;;;;-149.78;100.00;50142.88;4825108;29;20058;-64
2021/09/25 11:09:05;;;;;;;3.85;2.33;;;;;;;-149.78;100.00;50142.88;4823346;29;20471;-64
2021/09/25 11:11:38;;;;;;;3.15;2.00;;;;;;;-149.78;100.00;50138.97;4825267;29;20042;-64